Terminal Aerodrome Forecast
Issued by NWS

Home | Current Version | Previous Version | Text Only | Print | Product List | Glossary On
Versions: 1 2 3 4 5 6 7 8 9 10 11 12 13
000
FTUS44 KJAN 242346
TAFGTR
TAF
KGTR 242346Z 2500/2524 15012KT P6SM FEW030 BKN090
     FM250400 15010G20KT 6SM -SHRA VCTS BKN025 OVC040CB
     FM251600 16015KT P6SM VCTS BKN040CB OVC060=

USA.gov is the U.S. government's official web portal to all federal, state and local government web resources and services.